createdAt,value
2019-03-24T00:02:12.084Z,16.07
2019-03-24T00:04:43.259Z,16.05
2019-03-24T00:07:15.961Z,16.05
2019-03-24T00:09:46.691Z,16.05
2019-03-24T00:12:20.756Z,16.10
2019-03-24T00:14:52.268Z,16.10
2019-03-24T00:17:23.881Z,16.00
2019-03-24T00:19:55.487Z,15.95
2019-03-24T00:22:30.608Z,15.87
2019-03-24T00:25:03.764Z,15.92
2019-03-24T00:27:35.584Z,15.83
2019-03-24T00:30:09.886Z,15.77
2019-03-24T00:32:42.811Z,15.72
2019-03-24T00:35:14.327Z,15.80
2019-03-24T00:37:46.634Z,15.74
2019-03-24T00:40:18.461Z,15.74
2019-03-24T00:42:50.291Z,15.76
2019-03-24T00:45:21.652Z,15.77
2019-03-24T00:47:53.449Z,15.75
2019-03-24T00:50:28.071Z,15.75
2019-03-24T00:53:01.109Z,15.72
2019-03-24T00:55:33.371Z,15.67
2019-03-24T00:58:04.107Z,15.76
2019-03-24T01:00:51.371Z,15.65
2019-03-24T01:03:23.032Z,15.56
2019-03-24T01:05:54.527Z,15.54
2019-03-24T01:08:25.976Z,15.50
2019-03-24T01:10:59.113Z,15.44
2019-03-24T01:13:30.486Z,15.40
2019-03-24T01:16:02.155Z,15.49
2019-03-24T01:18:33.641Z,15.53
2019-03-24T01:21:07.342Z,15.53
2019-03-24T01:23:38.893Z,15.53
2019-03-24T01:26:15.579Z,15.60
2019-03-24T01:28:47.059Z,15.62
2019-03-24T01:31:18.444Z,15.65
2019-03-24T01:33:49.892Z,15.76
2019-03-24T01:36:21.304Z,15.73
2019-03-24T01:38:53.709Z,15.73
2019-03-24T01:41:25.016Z,15.73
2019-03-24T01:43:56.525Z,15.67
2019-03-24T01:46:29.397Z,15.68
2019-03-24T01:49:00.145Z,15.65
2019-03-24T01:51:36.137Z,15.68
2019-03-24T01:54:07.740Z,15.61
2019-03-24T01:56:39.413Z,15.55
2019-03-24T01:59:10.909Z,15.56
2019-03-24T02:01:42.384Z,15.55
2019-03-24T02:04:18.012Z,15.51
2019-03-24T02:06:50.309Z,15.57
2019-03-24T02:09:21.965Z,15.49
2019-03-24T02:11:55.856Z,15.36
2019-03-24T02:14:27.378Z,15.36
2019-03-24T02:16:59.337Z,15.21
2019-03-24T02:19:31.393Z,15.14
2019-03-24T02:22:02.832Z,15.03
2019-03-24T02:24:34.254Z,14.99
2019-03-24T02:27:05.970Z,15.01
2019-03-24T02:29:41.671Z,14.81
2019-03-24T02:32:14.738Z,14.91
2019-03-24T02:34:46.117Z,14.90
2019-03-24T02:37:17.974Z,14.77
2019-03-24T02:39:52.440Z,14.69
2019-03-24T02:42:30.515Z,14.52
2019-03-24T02:45:10.848Z,14.52
2019-03-24T02:47:46.100Z,14.41
2019-03-24T02:50:17.456Z,14.41
2019-03-24T02:52:48.922Z,14.42
2019-03-24T02:55:20.158Z,14.59
2019-03-24T02:57:52.818Z,14.31
2019-03-24T03:00:28.082Z,14.20
2019-03-24T03:02:59.605Z,14.19
2019-03-24T03:05:30.948Z,14.17
2019-03-24T03:08:02.702Z,14.23
2019-03-24T03:10:37.521Z,14.16
2019-03-24T03:13:11.466Z,14.20
2019-03-24T03:15:46.009Z,14.11
2019-03-24T03:18:17.625Z,14.04
2019-03-24T03:20:49.096Z,14.02
2019-03-24T03:23:21.060Z,14.02
2019-03-24T03:25:52.687Z,13.87
2019-03-24T03:28:27.823Z,13.87
2019-03-24T03:30:59.679Z,13.76
2019-03-24T03:33:33.560Z,13.81
2019-03-24T03:36:06.716Z,13.70
2019-03-24T03:38:42.084Z,13.77
2019-03-24T03:41:13.408Z,13.83
2019-03-24T03:43:52.187Z,13.83
2019-03-24T03:46:24.926Z,13.83
2019-03-24T03:48:59.094Z,13.81
2019-03-24T03:51:31.049Z,13.83
2019-03-24T03:54:08.133Z,13.76
2019-03-24T03:56:37.491Z,13.76
2019-03-24T03:59:08.916Z,13.69
2019-03-24T04:01:46.780Z,13.70
2019-03-24T04:04:19.831Z,13.70
2019-03-24T04:06:53.594Z,13.70
2019-03-24T04:09:25.818Z,13.70
2019-03-24T04:11:57.214Z,13.78
2019-03-24T04:14:30.161Z,13.78
2019-03-24T04:17:08.271Z,13.76
2019-03-24T04:19:40.256Z,13.76
2019-03-24T04:22:11.575Z,13.88
2019-03-24T04:24:42.828Z,13.92
2019-03-24T04:27:16.266Z,13.89
2019-03-24T04:29:49.095Z,14.00
2019-03-24T04:32:21.444Z,14.18
2019-03-24T04:34:53.566Z,14.14
2019-03-24T04:37:25.113Z,14.10
2019-03-24T04:39:56.509Z,14.09
2019-03-24T04:42:28.935Z,14.10
2019-03-24T04:45:00.383Z,14.10
2019-03-24T04:47:34.338Z,14.19
2019-03-24T04:50:05.249Z,14.34
2019-03-24T04:52:38.241Z,14.36
2019-03-24T04:55:10.162Z,14.41
2019-03-24T04:57:41.614Z,14.31
2019-03-24T05:00:15.458Z,14.33
2019-03-24T05:02:46.730Z,14.29
2019-03-24T05:05:18.036Z,14.32
2019-03-24T05:07:49.964Z,14.24
2019-03-24T05:10:28.218Z,14.23
2019-03-24T05:12:59.778Z,14.31
2019-03-24T05:15:32.924Z,14.32
2019-03-24T05:18:04.693Z,14.25
2019-03-24T05:20:36.117Z,14.27
2019-03-24T05:23:09.560Z,14.35
2019-03-24T05:25:41.339Z,14.26
2019-03-24T05:28:12.724Z,14.40
2019-03-24T05:30:45.799Z,14.59
2019-03-24T05:33:17.317Z,14.54
2019-03-24T05:35:49.372Z,14.62
2019-03-24T05:38:25.982Z,14.76
2019-03-24T05:40:57.599Z,14.74
2019-03-24T05:43:29.082Z,14.78
2019-03-24T05:45:59.677Z,14.87
2019-03-24T05:48:31.208Z,14.99
2019-03-24T05:51:03.490Z,15.13
2019-03-24T05:53:35.028Z,15.06
2019-03-24T05:56:07.300Z,15.10
2019-03-24T05:58:41.629Z,15.32
2019-03-24T06:01:13.203Z,15.35
2019-03-24T06:03:44.840Z,15.29
2019-03-24T06:06:16.328Z,15.33
2019-03-24T06:08:49.501Z,15.49
2019-03-24T06:11:20.991Z,15.49
2019-03-24T06:13:52.442Z,15.49
2019-03-24T06:16:24.313Z,15.63
2019-03-24T06:18:55.796Z,15.74
2019-03-24T06:21:27.396Z,15.78
2019-03-24T06:24:03.365Z,15.95
2019-03-24T06:26:37.132Z,16.09
2019-03-24T06:29:12.003Z,16.26
2019-03-24T06:31:43.583Z,16.40
2019-03-24T06:34:14.518Z,16.47
2019-03-24T06:36:46.219Z,16.57
2019-03-24T06:39:17.731Z,16.75
2019-03-24T06:41:49.322Z,16.78
2019-03-24T06:44:21.225Z,16.87
2019-03-24T06:46:52.991Z,17.05
2019-03-24T06:49:23.984Z,17.24
2019-03-24T06:51:55.495Z,17.39
2019-03-24T06:54:27.749Z,17.55
2019-03-24T06:56:59.276Z,17.45
2019-03-24T06:59:30.821Z,17.40
2019-03-24T07:02:03.550Z,17.70
2019-03-24T07:04:38.607Z,17.68
2019-03-24T07:07:16.909Z,17.79
2019-03-24T07:09:48.365Z,17.91
2019-03-24T07:12:20.019Z,17.99
2019-03-24T07:14:51.410Z,18.16
2019-03-24T07:17:31.258Z,18.21
2019-03-24T07:20:03.939Z,18.34
2019-03-24T07:22:38.223Z,18.29
2019-03-24T07:25:10.219Z,18.37
2019-03-24T07:27:42.618Z,18.75
2019-03-24T07:30:21.720Z,18.75
2019-03-24T07:32:56.901Z,18.96
2019-03-24T07:35:30.101Z,19.11
2019-03-24T07:38:02.748Z,19.43
2019-03-24T07:40:34.411Z,19.43
2019-03-24T07:43:21.754Z,19.34
2019-03-24T07:45:55.804Z,19.44
2019-03-24T07:48:28.081Z,19.53
2019-03-24T07:50:59.881Z,19.73
2019-03-24T07:53:32.523Z,19.65
2019-03-24T07:56:08.133Z,19.55
2019-03-24T07:58:46.795Z,19.55
2019-03-24T08:01:18.507Z,19.70
2019-03-24T08:03:50.588Z,19.54
2019-03-24T08:06:22.334Z,19.37
2019-03-24T08:08:57.181Z,19.48
2019-03-24T08:11:29.619Z,19.48
2019-03-24T08:14:01.318Z,19.63
2019-03-24T08:16:35.979Z,19.87
2019-03-24T08:19:10.050Z,19.97
2019-03-24T08:21:41.993Z,20.10
2019-03-24T08:24:13.489Z,20.20
2019-03-24T08:26:46.333Z,20.38
2019-03-24T08:29:23.630Z,20.43
2019-03-24T08:31:57.666Z,20.42
2019-03-24T08:34:29.197Z,20.51
2019-03-24T08:37:03.383Z,20.83
2019-03-24T08:39:34.989Z,20.84
2019-03-24T08:42:06.456Z,20.94
2019-03-24T08:44:44.106Z,21.36
2019-03-24T08:47:17.538Z,21.31
2019-03-24T08:49:50.875Z,21.16
2019-03-24T08:52:22.344Z,20.97
2019-03-24T08:54:53.584Z,21.23
2019-03-24T08:57:25.090Z,21.19
2019-03-24T08:59:57.663Z,21.12
2019-03-24T09:02:29.929Z,21.38
2019-03-24T09:05:02.101Z,21.59
2019-03-24T09:07:33.386Z,21.77
2019-03-24T09:10:06.280Z,21.66
2019-03-24T09:12:40.898Z,21.62
2019-03-24T09:15:14.122Z,21.38
2019-03-24T09:17:45.608Z,21.53
2019-03-24T09:20:18.454Z,21.31
2019-03-24T09:22:57.035Z,21.24
2019-03-24T09:25:28.878Z,21.09
2019-03-24T09:28:02.335Z,21.32
2019-03-24T09:30:35.495Z,21.68
2019-03-24T09:33:10.340Z,21.39
2019-03-24T09:35:47.356Z,21.39
2019-03-24T09:38:27.774Z,21.38
2019-03-24T09:40:59.059Z,21.66
2019-03-24T09:43:34.966Z,21.60
2019-03-24T09:46:11.013Z,21.57
2019-03-24T09:48:42.805Z,21.38
2019-03-24T09:51:21.159Z,21.38
2019-03-24T09:53:59.007Z,21.81
2019-03-24T09:56:35.484Z,21.98
2019-03-24T09:59:13.414Z,22.34
2019-03-24T10:01:53.925Z,22.34
2019-03-24T10:04:36.055Z,22.32
2019-03-24T10:07:07.508Z,22.58
2019-03-24T10:09:47.850Z,22.28
2019-03-24T10:12:21.585Z,22.26
2019-03-24T10:14:52.305Z,22.56
2019-03-24T10:17:26.033Z,22.51
2019-03-24T10:19:57.655Z,22.58
2019-03-24T10:22:30.546Z,22.35
2019-03-24T10:25:08.384Z,23.10
2019-03-24T10:27:42.011Z,22.97
2019-03-24T10:30:15.413Z,22.94
2019-03-24T10:32:47.223Z,23.52
2019-03-24T10:35:18.534Z,23.52
2019-03-24T10:38:15.837Z,23.81
2019-03-24T10:40:52.616Z,24.44
2019-03-24T10:43:26.961Z,24.59
2019-03-24T10:46:01.551Z,24.57
2019-03-24T10:48:33.855Z,24.64
2019-03-24T10:51:09.013Z,24.58
2019-03-24T10:53:41.659Z,24.50
2019-03-24T10:56:13.644Z,24.68
2019-03-24T10:58:48.312Z,24.08
2019-03-24T11:01:21.669Z,23.97
2019-03-24T11:03:53.359Z,24.11
2019-03-24T11:06:27.127Z,24.04
2019-03-24T11:08:58.621Z,24.33
2019-03-24T11:11:33.829Z,24.86
2019-03-24T11:14:05.161Z,24.77
2019-03-24T11:16:41.834Z,24.25
2019-03-24T11:19:35.298Z,24.43
2019-03-24T11:22:00.719Z,25.24
2019-03-24T11:24:32.265Z,24.86
2019-03-24T11:27:05.467Z,24.86
2019-03-24T11:29:37.100Z,25.30
2019-03-24T11:32:09.956Z,24.99
2019-03-24T11:34:48.187Z,25.25
2019-03-24T11:37:19.510Z,25.71
2019-03-24T11:39:53.003Z,25.55
2019-03-24T11:42:26.600Z,25.92
2019-03-24T11:45:00.077Z,26.43
2019-03-24T11:47:34.816Z,26.48
2019-03-24T11:50:10.309Z,26.61
2019-03-24T11:52:46.470Z,26.91
2019-03-24T11:55:23.621Z,26.88
2019-03-24T11:58:05.750Z,26.44
2019-03-24T12:00:35.672Z,26.54
2019-03-24T12:03:10.716Z,26.57
2019-03-24T12:05:42.303Z,26.41
2019-03-24T12:08:20.396Z,26.43
2019-03-24T12:10:53.315Z,26.24
2019-03-24T12:13:25.915Z,25.83
2019-03-24T12:15:57.317Z,26.05
2019-03-24T12:18:28.692Z,26.49
2019-03-24T12:21:00.080Z,26.43
2019-03-24T12:23:31.612Z,26.06
2019-03-24T12:26:10.090Z,25.98
2019-03-24T12:28:41.449Z,25.85
2019-03-24T12:31:13.409Z,25.78
2019-03-24T12:33:47.767Z,25.50
2019-03-24T12:36:19.340Z,25.33
2019-03-24T12:38:52.094Z,25.09
2019-03-24T12:41:26.471Z,24.92
2019-03-24T12:44:01.225Z,24.75
2019-03-24T12:46:36.849Z,24.69
2019-03-24T12:49:08.259Z,24.54
2019-03-24T12:51:44.296Z,24.45
2019-03-24T12:54:28.621Z,24.50
2019-03-24T12:57:11.790Z,24.50
2019-03-24T12:59:48.868Z,24.54
2019-03-24T13:02:36.591Z,24.54
2019-03-24T13:05:47.766Z,24.78
2019-03-24T13:08:25.279Z,25.16
2019-03-24T13:11:06.263Z,25.30
2019-03-24T13:13:53.504Z,25.45
2019-03-24T13:16:24.271Z,25.60
2019-03-24T13:18:56.170Z,25.80
2019-03-24T13:21:32.527Z,26.08
2019-03-24T13:24:15.860Z,26.18
2019-03-24T13:26:50.442Z,26.26
2019-03-24T13:29:27.677Z,26.11
2019-03-24T13:32:10.193Z,25.93
2019-03-24T13:35:23.876Z,26.07
2019-03-24T13:38:03.621Z,26.07
2019-03-24T13:40:53.167Z,26.90
2019-03-24T13:43:27.668Z,26.90
2019-03-24T13:46:04.364Z,27.07
2019-03-24T13:48:43.738Z,26.86
2019-03-24T13:51:35.593Z,26.85
2019-03-24T13:54:15.607Z,26.88
2019-03-24T13:56:56.612Z,26.58
2019-03-24T13:59:43.971Z,26.52
2019-03-24T14:02:20.606Z,26.37
2019-03-24T14:04:57.146Z,25.62
2019-03-24T14:07:32.530Z,24.96
2019-03-24T14:10:09.187Z,24.52
2019-03-24T14:12:42.135Z,24.52
2019-03-24T14:15:17.575Z,24.29
2019-03-24T14:17:57.639Z,24.29
2019-03-24T14:20:42.689Z,24.37
2019-03-24T14:23:08.727Z,24.54
2019-03-24T14:25:40.446Z,24.78
2019-03-24T14:28:18.926Z,25.07
2019-03-24T14:30:53.345Z,25.17
2019-03-24T14:33:26.962Z,25.16
2019-03-24T14:35:58.779Z,24.91
2019-03-24T14:38:33.242Z,24.79
2019-03-24T14:41:04.800Z,24.94
2019-03-24T14:43:36.373Z,24.83
2019-03-24T14:46:10.344Z,24.76
2019-03-24T14:48:42.293Z,24.64
2019-03-24T14:51:27.465Z,24.64
2019-03-24T14:54:03.948Z,24.59
2019-03-24T14:56:38.433Z,24.52
2019-03-24T14:59:11.835Z,24.49
2019-03-24T15:01:43.217Z,24.45
2019-03-24T15:04:19.349Z,24.25
2019-03-24T15:06:50.855Z,24.39
2019-03-24T15:09:30.145Z,24.63
2019-03-24T15:12:15.768Z,24.52
2019-03-24T15:14:49.474Z,24.08
2019-03-24T15:17:25.344Z,23.82
2019-03-24T15:19:59.629Z,23.51
2019-03-24T15:22:38.216Z,23.34
2019-03-24T15:25:23.391Z,23.45
2019-03-24T15:27:58.242Z,23.40
2019-03-24T15:31:04.493Z,23.48
2019-03-24T15:33:57.167Z,23.37
2019-03-24T15:36:30.642Z,23.32
2019-03-24T15:39:21.422Z,23.20
2019-03-24T15:41:52.942Z,23.08
2019-03-24T15:44:44.882Z,22.90
2019-03-24T15:47:25.224Z,22.67
2019-03-24T15:50:04.244Z,22.68
2019-03-24T15:52:42.137Z,22.72
2019-03-24T15:55:18.197Z,22.66
2019-03-24T15:57:57.406Z,22.70
2019-03-24T16:00:59.837Z,22.71
2019-03-24T16:04:07.405Z,22.65
2019-03-24T16:06:49.779Z,22.45
2019-03-24T16:09:22.123Z,22.14
2019-03-24T16:11:53.966Z,22.17
2019-03-24T16:14:30.490Z,22.12
2019-03-24T16:17:11.249Z,22.06
2019-03-24T16:19:41.947Z,22.03
2019-03-24T16:22:19.625Z,21.99
2019-03-24T16:24:53.319Z,21.95
2019-03-24T16:27:31.230Z,22.16
2019-03-24T16:30:06.761Z,22.17
2019-03-24T16:32:39.604Z,22.20
2019-03-24T16:35:12.044Z,22.19
2019-03-24T16:37:44.643Z,22.26
2019-03-24T16:40:18.159Z,22.03
2019-03-24T16:42:50.598Z,21.86
2019-03-24T16:45:21.494Z,21.63
2019-03-24T16:47:54.712Z,21.51
2019-03-24T16:50:28.959Z,21.53
2019-03-24T16:52:59.695Z,21.47
2019-03-24T16:55:33.582Z,21.75
2019-03-24T16:58:04.421Z,21.78
2019-03-24T17:00:47.641Z,21.65
2019-03-24T17:03:28.099Z,21.56
2019-03-24T17:06:10.170Z,21.47
2019-03-24T17:08:43.454Z,21.17
2019-03-24T17:11:15.148Z,20.87
2019-03-24T17:13:48.659Z,20.87
2019-03-24T17:16:25.095Z,20.78
2019-03-24T17:18:55.862Z,20.59
2019-03-24T17:21:26.622Z,20.69
2019-03-24T17:23:58.738Z,20.45
2019-03-24T17:26:35.061Z,20.18
2019-03-24T17:29:08.614Z,20.16
2019-03-24T17:31:39.452Z,20.26
2019-03-24T17:34:10.014Z,20.18
2019-03-24T17:36:48.078Z,20.14
2019-03-24T17:39:18.971Z,19.94
2019-03-24T17:41:55.929Z,19.77
2019-03-24T17:44:30.686Z,19.77
2019-03-24T17:47:01.575Z,19.77
2019-03-24T17:49:32.507Z,19.49
2019-03-24T17:52:06.506Z,19.51
2019-03-24T17:54:42.070Z,19.37
2019-03-24T17:57:21.683Z,19.32
2019-03-24T17:59:59.057Z,19.09
2019-03-24T18:02:33.592Z,18.94
2019-03-24T18:05:06.641Z,18.94
2019-03-24T18:07:46.057Z,19.00
2019-03-24T18:10:23.068Z,18.81
2019-03-24T18:12:57.090Z,18.74
2019-03-24T18:15:28.594Z,18.77
2019-03-24T18:18:03.179Z,18.94
2019-03-24T18:20:39.176Z,18.81
2019-03-24T18:23:14.759Z,18.51
2019-03-24T18:25:46.211Z,18.38
2019-03-24T18:28:18.078Z,18.38
2019-03-24T18:30:56.667Z,18.42
2019-03-24T18:33:28.695Z,18.25
2019-03-24T18:36:04.339Z,18.27
2019-03-24T18:38:41.979Z,18.27
2019-03-24T18:41:15.241Z,18.09
2019-03-24T18:43:56.832Z,17.97
2019-03-24T18:46:43.247Z,17.84
2019-03-24T18:49:17.271Z,18.09
2019-03-24T18:51:58.910Z,17.89
2019-03-24T18:54:36.015Z,17.63
2019-03-24T18:57:13.662Z,17.63
2019-03-24T18:59:54.159Z,17.58
2019-03-24T19:02:25.301Z,17.69
2019-03-24T19:05:00.334Z,17.72
2019-03-24T19:07:34.174Z,17.72
2019-03-24T19:10:16.293Z,17.68
2019-03-24T19:12:55.425Z,17.51
2019-03-24T19:15:37.487Z,17.42
2019-03-24T19:18:13.417Z,17.63
2019-03-24T19:20:48.017Z,17.26
2019-03-24T19:23:32.566Z,17.16
2019-03-24T19:26:03.442Z,17.09
2019-03-24T19:28:40.401Z,17.20
2019-03-24T19:31:19.811Z,17.17
2019-03-24T19:33:56.584Z,17.18
2019-03-24T19:36:29.149Z,17.10
2019-03-24T19:39:01.487Z,17.01
2019-03-24T19:41:35.003Z,17.04
2019-03-24T19:44:09.299Z,16.94
2019-03-24T19:46:41.909Z,16.60
2019-03-24T19:49:15.611Z,16.46
2019-03-24T19:51:58.574Z,16.55
2019-03-24T19:54:31.175Z,16.62
2019-03-24T19:57:11.250Z,16.57
2019-03-24T19:59:43.562Z,16.44
2019-03-24T20:02:20.572Z,16.41
2019-03-24T20:04:56.298Z,16.42
2019-03-24T20:07:52.511Z,16.37
2019-03-24T20:10:30.012Z,16.24
2019-03-24T20:13:03.194Z,16.37
2019-03-24T20:15:38.003Z,16.40
2019-03-24T20:18:15.433Z,16.32
2019-03-24T20:20:52.122Z,16.36
2019-03-24T20:23:24.448Z,16.31
2019-03-24T20:26:00.681Z,16.11
2019-03-24T20:28:35.124Z,16.11
2019-03-24T20:31:17.642Z,16.02
2019-03-24T20:34:02.907Z,16.10
2019-03-24T20:36:40.026Z,16.10
2019-03-24T20:39:24.294Z,16.05
2019-03-24T20:42:00.337Z,16.03
2019-03-24T20:44:52.459Z,15.94
2019-03-24T20:47:29.485Z,15.92
2019-03-24T20:50:08.402Z,15.95
2019-03-24T20:52:41.889Z,15.95
2019-03-24T20:55:16.380Z,15.79
2019-03-24T20:57:59.209Z,15.63
2019-03-24T21:00:42.277Z,15.59
2019-03-24T21:03:18.931Z,15.67
2019-03-24T21:06:02.413Z,15.67
2019-03-24T21:08:39.863Z,15.60
2019-03-24T21:11:19.013Z,15.64
2019-03-24T21:13:56.219Z,15.64
2019-03-24T21:16:42.015Z,15.45
2019-03-24T21:19:19.999Z,15.48
2019-03-24T21:21:56.148Z,15.47
2019-03-24T21:24:29.306Z,15.39
2019-03-24T21:27:07.406Z,15.38
2019-03-24T21:29:49.883Z,15.38
2019-03-24T21:32:21.482Z,15.31
2019-03-24T21:34:53.730Z,15.21
2019-03-24T21:37:29.197Z,15.14
2019-03-24T21:40:06.241Z,15.10
2019-03-24T21:42:42.684Z,15.09
2019-03-24T21:45:17.635Z,14.86
2019-03-24T21:47:52.543Z,15.04
2019-03-24T21:50:28.457Z,14.94
2019-03-24T21:53:00.735Z,14.89
2019-03-24T21:55:40.352Z,14.85
2019-03-24T21:58:15.313Z,14.71
2019-03-24T22:00:47.791Z,14.70
2019-03-24T22:03:20.277Z,14.64
2019-03-24T22:05:55.284Z,14.62
2019-03-24T22:08:30.211Z,14.47
2019-03-24T22:11:05.192Z,14.50
2019-03-24T22:13:37.748Z,14.45
2019-03-24T22:16:10.835Z,14.66
2019-03-24T22:18:46.351Z,14.54
2019-03-24T22:21:18.002Z,14.47
2019-03-24T22:23:53.688Z,14.48
2019-03-24T22:26:30.828Z,14.48
2019-03-24T22:29:06.203Z,14.68
2019-03-24T22:31:39.321Z,14.68
2019-03-24T22:34:11.601Z,14.49
2019-03-24T22:36:43.131Z,14.15
2019-03-24T22:39:14.626Z,13.91
2019-03-24T22:41:46.207Z,13.89
2019-03-24T22:44:17.624Z,13.73
2019-03-24T22:46:52.581Z,13.94
2019-03-24T22:49:25.782Z,13.78
2019-03-24T22:52:09.321Z,13.69
2019-03-24T22:54:45.684Z,13.89
2019-03-24T22:57:17.181Z,13.73
2019-03-24T22:59:49.663Z,13.92
2019-03-24T23:02:23.196Z,13.97
2019-03-24T23:04:58.914Z,13.68
2019-03-24T23:07:31.753Z,13.57
2019-03-24T23:10:04.467Z,13.75
2019-03-24T23:12:40.191Z,13.36
2019-03-24T23:15:15.283Z,13.42
2019-03-24T23:17:47.095Z,13.18
2019-03-24T23:20:19.859Z,13.31
2019-03-24T23:22:53.857Z,13.35
2019-03-24T23:25:29.366Z,13.22
2019-03-24T23:28:06.451Z,13.53
2019-03-24T23:30:41.590Z,13.56
2019-03-24T23:33:13.195Z,13.46
2019-03-24T23:35:53.978Z,13.62
2019-03-24T23:38:32.447Z,13.62
2019-03-24T23:41:07.988Z,13.62
2019-03-24T23:43:41.724Z,13.74
2019-03-24T23:46:14.743Z,13.45
2019-03-24T23:48:51.606Z,13.31
2019-03-24T23:51:25.053Z,13.47
2019-03-24T23:53:58.328Z,13.29
2019-03-24T23:56:35.157Z,13.23
2019-03-24T23:59:11.052Z,13.05
